Time;durP1;ratioP1;P1;durP2;ratioP2;P2;SDS_P1;SDS_P2;PMS_P1;PMS_P2;Temp;Humidity;BMP_temperature;BMP_pressure;BME280_temperature;BME280_humidity;BME280_pressure;Samples;Min_cycle;Max_cycle;Signal;HPM_P1;HPM_P2
2023/04/29 00:00:54;;;;;;;3.60;3.30;;;;;;;13.33;89.68;96359.94;6270715;23;20024;-80
2023/04/29 00:03:22;;;;;;;4.25;3.42;;;;;;;13.35;89.56;96363.16;6271125;22;20024;-80
2023/04/29 00:05:51;;;;;;;5.32;3.70;;;;;;;13.34;89.46;96358.16;6273388;23;20024;-80
2023/04/29 00:08:19;;;;;;;3.58;3.28;;;;;;;13.35;89.54;96359.75;6272500;23;20071;-80
2023/04/29 00:10:47;;;;;;;3.35;3.05;;;;;;;13.34;89.35;96347.66;6273150;23;20020;-80
2023/04/29 00:13:15;;;;;;;4.30;3.90;;;;;;;13.36;89.32;96358.75;6270777;22;20072;-80
2023/04/29 00:15:44;;;;;;;3.33;3.00;;;;;;;13.37;89.04;96355.09;6272502;22;20046;-80
2023/04/29 00:18:13;;;;;;;3.95;3.53;;;;;;;13.37;89.44;96349.84;6271790;23;20016;-80
2023/04/29 00:20:42;;;;;;;3.90;3.40;;;;;;;13.36;88.87;96353.50;6273483;22;20020;-80
2023/04/29 00:23:10;;;;;;;3.90;3.55;;;;;;;13.36;88.68;96353.50;6271435;22;20039;-80
2023/04/29 00:25:38;;;;;;;5.25;3.08;;;;;;;13.35;88.89;96346.63;6272079;22;20020;-80
2023/04/29 00:28:06;;;;;;;3.75;3.33;;;;;;;13.35;88.60;96351.88;6273737;22;20020;-80
2023/04/29 00:30:34;;;;;;;4.28;3.88;;;;;;;13.34;88.43;96352.91;6271978;22;20354;-81
2023/04/29 00:33:02;;;;;;;4.15;3.63;;;;;;;13.34;88.38;96350.28;6271452;22;20027;-81
2023/04/29 00:35:32;;;;;;;6.07;4.53;;;;;;;13.32;88.57;96352.31;6273431;22;20027;-81
2023/04/29 00:38:00;;;;;;;5.22;4.18;;;;;;;13.33;88.69;96353.91;6271711;22;20020;-81
2023/04/29 00:40:28;;;;;;;5.25;4.13;;;;;;;13.32;88.50;96347.06;6273238;22;20015;-80
2023/04/29 00:42:56;;;;;;;6.03;5.18;;;;;;;13.32;88.74;96344.44;6273581;22;20005;-81
2023/04/29 00:45:24;;;;;;;5.22;4.63;;;;;;;13.30;88.61;96344.63;6272009;23;20023;-81
2023/04/29 00:47:52;;;;;;;4.93;4.28;;;;;;;13.31;88.85;96346.22;6273624;22;20012;-81
2023/04/29 00:50:21;;;;;;;4.35;3.75;;;;;;;13.32;89.08;96350.47;6274198;22;20000;-80
2023/04/29 00:52:52;;;;;;;4.28;3.88;;;;;;;13.33;88.64;96353.91;6273779;22;20004;-81
2023/04/29 00:55:20;;;;;;;4.43;3.95;;;;;;;13.32;88.50;96354.91;6273357;22;20008;-80
2023/04/29 00:57:51;;;;;;;4.32;3.92;;;;;;;13.33;88.51;96361.75;6270891;23;20012;-80
2023/04/29 01:00:19;;;;;;;4.20;3.90;;;;;;;13.33;88.53;96352.06;6270042;23;20026;-80
2023/04/29 01:02:48;;;;;;;4.22;3.58;;;;;;;13.35;88.93;96357.91;6272999;22;20031;-80
2023/04/29 01:05:16;;;;;;;5.38;3.60;;;;;;;13.37;89.13;96355.09;6270132;22;20024;-81
2023/04/29 01:07:55;;;;;;;4.22;3.85;;;;;;;13.37;89.16;96355.09;6271162;23;20026;-81
2023/04/29 01:10:28;;;;;;;3.92;3.60;;;;;;;13.37;88.80;96361.13;6272638;22;20024;-80
2023/04/29 01:13:06;;;;;;;3.45;3.25;;;;;;;13.38;89.18;96364.56;6270382;23;20035;-81
2023/04/29 01:15:44;;;;;;;6.57;3.90;;;;;;;13.37;89.15;96361.13;6269921;23;20020;-80
2023/04/29 01:18:18;;;;;;;4.32;3.80;;;;;;;13.35;87.96;96370.22;6270560;23;20043;-80
2023/04/29 01:20:46;;;;;;;4.75;3.95;;;;;;;13.32;87.73;96368.03;6271774;22;20004;-80
2023/04/29 01:23:16;;;;;;;3.80;3.50;;;;;;;13.31;87.86;96371.63;6272189;22;20016;-80
2023/04/29 01:25:47;;;;;;;4.47;3.95;;;;;;;13.30;87.95;96380.50;6272716;22;20004;-80
2023/04/29 01:28:26;;;;;;;3.95;3.60;;;;;;;13.31;88.90;96363.78;6272697;23;20016;-80
2023/04/29 01:31:00;;;;;;;3.95;3.63;;;;;;;13.30;88.17;96370.03;6274173;23;20038;-80
2023/04/29 01:33:40;;;;;;;4.38;3.97;;;;;;;13.30;88.55;96376.06;6274281;22;20024;-81
2023/04/29 01:36:15;;;;;;;4.30;3.70;;;;;;;13.30;88.20;96370.03;6274869;22;20004;-80
2023/04/29 01:38:53;;;;;;;3.50;3.20;;;;;;;13.31;88.41;96371.63;6273718;23;20024;-80
2023/04/29 01:41:31;;;;;;;4.10;3.70;;;;;;;13.31;88.16;96376.88;6274906;22;20045;-80
2023/04/29 01:44:01;;;;;;;4.28;3.20;;;;;;;13.31;88.03;96366.41;6275192;22;20031;-81
2023/04/29 01:46:31;;;;;;;4.50;3.40;;;;;;;13.31;88.11;96364.56;6275534;22;20026;-80
2023/04/29 01:48:59;;;;;;;3.05;2.85;;;;;;;13.31;88.03;96366.41;6273853;23;20000;-81
2023/04/29 01:51:27;;;;;;;3.58;2.95;;;;;;;13.30;87.90;96367.41;6273837;23;20046;-81
2023/04/29 01:53:55;;;;;;;6.93;3.60;;;;;;;13.28;87.85;96366.78;6274079;22;20020;-80
2023/04/29 01:56:25;;;;;;;4.63;3.10;;;;;;;13.28;87.93;96361.53;6275122;22;20000;-81
2023/04/29 01:58:53;;;;;;;3.60;3.25;;;;;;;13.29;88.33;96369.22;6275391;22;20015;-80
2023/04/29 02:01:21;;;;;;;3.53;2.67;;;;;;;13.31;88.86;96366.41;6275179;22;20012;-80
2023/04/29 02:03:49;;;;;;;3.53;3.13;;;;;;;13.32;88.92;96373.25;6275096;22;20004;-81
2023/04/29 02:06:17;;;;;;;3.35;3.05;;;;;;;13.30;89.38;96364.78;6275472;22;20026;-80
2023/04/29 02:08:45;;;;;;;3.53;3.22;;;;;;;13.31;89.65;96371.63;6275601;22;20004;-80
2023/04/29 02:11:13;;;;;;;4.85;3.42;;;;;;;13.29;89.85;96363.16;6275535;22;20024;-80
2023/04/29 02:13:43;;;;;;;4.05;3.55;;;;;;;13.27;90.03;96365.16;6275421;22;20004;-79
2023/04/29 02:16:12;;;;;;;3.42;3.13;;;;;;;13.26;89.72;96366.19;6275670;22;20000;-80
2023/04/29 02:18:41;;;;;;;3.92;2.90;;;;;;;13.25;89.85;96367.16;6275248;22;20076;-80
2023/04/29 02:21:09;;;;;;;3.97;3.67;;;;;;;13.23;90.13;96372.63;6275245;22;20019;-80
2023/04/29 02:23:37;;;;;;;3.58;3.28;;;;;;;13.24;90.37;96365.56;6273290;22;20028;-80
2023/04/29 02:26:06;;;;;;;3.50;3.20;;;;;;;13.24;90.51;96370.81;6274696;22;20011;-81
2023/04/29 02:28:34;;;;;;;3.33;2.83;;;;;;;13.22;90.22;96378.06;6274069;22;20046;-80
2023/04/29 02:31:04;;;;;;;3.97;3.67;;;;;;;13.22;90.03;96372.84;6243211;23;20021;-81
2023/04/29 02:33:32;;;;;;;3.22;2.92;;;;;;;13.23;90.35;96382.28;6243949;23;20004;-81
2023/04/29 02:36:00;;;;;;;3.40;3.10;;;;;;;13.24;89.86;96386.53;6244186;23;20008;-80
2023/04/29 02:38:28;;;;;;;3.70;3.40;;;;;;;13.24;89.19;96386.53;6242707;23;20072;-80
2023/04/29 02:40:56;;;;;;;3.63;3.33;;;;;;;13.24;88.90;96376.06;6242902;23;20001;-80
2023/04/29 02:43:24;;;;;;;5.10;3.60;;;;;;;13.24;87.95;96379.47;6243688;23;20025;-80
2023/04/29 02:45:52;;;;;;;3.65;3.20;;;;;;;13.23;87.97;96377.03;6243386;23;20052;-80
2023/04/29 02:48:22;;;;;;;3.88;3.50;;;;;;;13.20;87.87;96379.06;6243219;23;20069;-80
2023/04/29 02:50:50;;;;;;;2.67;2.47;;;;;;;13.22;88.52;96380.69;6244850;23;20013;-80
2023/04/29 02:53:19;;;;;;;5.00;3.20;;;;;;;13.19;88.47;96382.69;6243951;23;20028;-80
2023/04/29 02:55:47;;;;;;;4.35;3.65;;;;;;;13.18;88.07;96383.72;6243449;23;20017;-80
2023/04/29 02:58:15;;;;;;;3.58;3.28;;;;;;;13.17;88.04;96374.25;6243556;23;20021;-80
2023/04/29 03:03:26;;;;;;;3.58;3.28;;;;;;;13.17;89.39;96368.22;6246798;22;20011;-80
2023/04/29 03:05:55;;;;;;;3.35;3.05;;;;;;;13.15;89.34;96371.00;6273586;22;20032;-81
2023/04/29 03:08:23;;;;;;;3.88;3.30;;;;;;;13.13;88.81;96370.41;6274869;22;20023;-81
2023/04/29 03:10:51;;;;;;;3.63;3.33;;;;;;;13.13;88.81;96372.22;6273130;23;20016;-81
2023/04/29 03:13:19;;;;;;;3.45;3.13;;;;;;;13.14;89.30;96371.22;6274639;22;20015;-81
2023/04/29 04:29:51;;;;;;;5.40;4.43;;;;;;;13.26;88.26;96385.31;6203737;22;21401;-80
2023/04/29 04:32:22;;;;;;;3.80;3.50;;;;;;;13.28;88.92;96383.31;6213444;23;20021;-79
2023/04/29 04:34:50;;;;;;;4.25;3.85;;;;;;;13.30;89.12;96397.03;6236540;23;20020;-80
2023/04/29 04:37:18;;;;;;;4.75;4.32;;;;;;;13.30;89.15;96401.47;6243308;23;20005;-80
2023/04/29 04:39:46;;;;;;;4.90;4.40;;;;;;;13.30;89.40;96394.41;6242989;23;20005;-80
2023/04/29 04:42:14;;;;;;;6.20;4.50;;;;;;;13.31;89.31;96397.81;6242913;23;20012;-80
2023/04/29 04:44:42;;;;;;;4.97;4.50;;;;;;;13.30;89.42;96401.47;6242301;23;20036;-80
2023/04/29 04:47:10;;;;;;;5.88;4.80;;;;;;;13.31;89.38;96406.47;6242570;23;20042;-80
2023/04/29 04:49:40;;;;;;;5.18;4.45;;;;;;;13.31;89.64;96410.94;6242190;23;20034;-80
2023/04/29 04:52:08;;;;;;;5.85;4.95;;;;;;;13.33;89.52;96417.56;6243161;23;20032;-80
2023/04/29 04:54:37;;;;;;;5.10;4.68;;;;;;;13.35;90.02;96412.13;6242660;23;20016;-80
2023/04/29 04:57:05;;;;;;;5.47;4.75;;;;;;;13.35;90.30;96420.00;6242291;23;20022;-80
2023/04/29 04:59:33;;;;;;;5.40;4.88;;;;;;;13.37;90.23;96420.59;6242956;23;20023;-80
2023/04/29 05:02:01;;;;;;;4.43;4.13;;;;;;;13.38;89.99;96416.94;6242823;23;20005;-80
2023/04/29 05:04:29;;;;;;;5.30;4.80;;;;;;;13.38;88.94;96419.56;6242113;23;20335;-80
2023/04/29 05:06:59;;;;;;;6.13;5.53;;;;;;;13.37;88.18;96415.34;6242627;23;20051;-80
2023/04/29 05:09:26;;;;;;;5.95;5.35;;;;;;;13.36;87.71;96416.38;6242367;23;20009;-80
2023/04/29 05:11:54;;;;;;;4.50;4.10;;;;;;;13.36;87.60;96422.41;6242371;23;20001;-80
2023/04/29 05:14:22;;;;;;;4.47;4.07;;;;;;;13.36;88.19;96421.63;6242431;23;20008;-80
2023/04/29 05:16:51;;;;;;;5.78;4.72;;;;;;;13.33;87.56;96427.25;6242870;23;20004;-80
2023/04/29 05:19:19;;;;;;;6.65;5.47;;;;;;;13.31;87.27;96424.03;6241667;23;20024;-80
2023/04/29 05:21:47;;;;;;;5.68;5.10;;;;;;;13.31;87.12;96431.88;6242130;23;20021;-80
2023/04/29 05:24:18;;;;;;;5.10;4.68;;;;;;;13.31;87.77;96434.50;6242182;23;20028;-80
2023/04/29 05:26:46;;;;;;;6.93;5.15;;;;;;;13.33;87.83;96440.34;6242311;23;20017;-80
2023/04/29 05:29:14;;;;;;;5.47;4.97;;;;;;;13.33;87.18;96442.97;6242369;23;20024;-80
2023/04/29 05:31:42;;;;;;;6.15;5.10;;;;;;;13.36;87.71;96437.34;6242120;23;20005;-81
2023/04/29 05:34:10;;;;;;;4.97;4.55;;;;;;;13.38;88.09;96446.59;6242428;23;20020;-80
2023/04/29 05:36:38;;;;;;;5.53;5.03;;;;;;;13.38;87.31;96451.00;6242663;23;20009;-80
2023/04/29 05:39:05;;;;;;;5.20;4.70;;;;;;;13.41;87.68;96452.44;6242402;23;20013;-81
2023/04/29 05:41:35;;;;;;;5.43;4.93;;;;;;;13.45;88.61;96457.06;6242369;23;20008;-80
2023/04/29 05:44:03;;;;;;;16.25;11.98;;;;;;;13.43;87.53;96456.47;6241966;23;20470;-80
2023/04/29 05:46:31;;;;;;;29.85;23.25;;;;;;;13.45;87.74;96464.94;6241797;23;20027;-80
2023/04/29 05:48:59;;;;;;;52.13;37.25;;;;;;;13.48;88.20;96456.66;6243059;23;20017;-80
2023/04/29 05:51:27;;;;;;;7.57;6.13;;;;;;;13.53;88.57;96469.94;6243010;23;20012;-80
2023/04/29 05:53:55;;;;;;;5.22;4.72;;;;;;;13.60;88.49;96475.22;6243210;23;20009;-80
2023/04/29 05:56:23;;;;;;;4.85;4.45;;;;;;;13.63;88.47;96468.75;6243107;23;20017;-80
2023/04/29 05:58:52;;;;;;;4.55;4.22;;;;;;;13.63;88.13;96477.41;6242192;23;20008;-80
2023/04/29 06:01:20;;;;;;;4.72;4.32;;;;;;;13.64;87.79;96480.81;6242176;23;20031;-80
2023/04/29 06:03:48;;;;;;;5.00;4.45;;;;;;;13.63;87.34;96474.78;6242756;23;20024;-80
2023/04/29 06:06:17;;;;;;;5.03;4.00;;;;;;;13.64;86.99;96486.06;6242452;23;20020;-80
2023/04/29 06:08:45;;;;;;;4.18;3.80;;;;;;;13.65;87.46;96483.25;6242694;23;20013;-80
2023/04/29 06:11:13;;;;;;;4.28;3.97;;;;;;;13.71;86.98;96492.09;6243192;23;20005;-80
2023/04/29 06:13:41;;;;;;;4.75;3.90;;;;;;;13.77;86.47;96491.28;6244377;23;20018;-80
2023/04/29 06:16:11;;;;;;;4.00;3.70;;;;;;;13.81;85.84;96492.50;6244692;23;20009;-80
2023/04/29 06:18:40;;;;;;;4.05;3.75;;;;;;;13.86;86.13;96490.06;6244780;23;20015;-79
2023/04/29 06:21:08;;;;;;;4.65;3.83;;;;;;;13.94;86.14;96489.84;6244492;23;20004;-80
2023/04/29 06:23:36;;;;;;;4.80;4.40;;;;;;;13.99;85.07;96500.53;6244699;23;20063;-80
2023/04/29 06:26:04;;;;;;;10.70;8.57;;;;;;;14.02;84.95;96505.38;6244647;23;20035;-80
2023/04/29 06:28:31;;;;;;;15.45;11.15;;;;;;;14.04;84.68;96507.78;6244699;23;20004;-80
2023/04/29 06:30:59;;;;;;;10.90;9.52;;;;;;;14.01;84.32;96503.78;6244432;23;20032;-80
2023/04/29 06:33:29;;;;;;;19.02;7.55;;;;;;;14.00;84.14;96507.38;6244506;23;20000;-80
2023/04/29 06:35:57;;;;;;;10.23;6.45;;;;;;;14.01;83.76;96514.25;6244540;23;20024;-80
2023/04/29 06:38:25;;;;;;;18.60;7.10;;;;;;;14.00;83.37;96512.63;6245066;23;20013;-80
2023/04/29 06:40:53;;;;;;;10.43;6.50;;;;;;;14.06;83.15;96524.13;6244619;23;20055;-80
2023/04/29 06:43:21;;;;;;;6.43;5.82;;;;;;;14.09;82.51;96525.53;6244832;23;20028;-80
2023/04/29 06:45:48;;;;;;;6.18;5.63;;;;;;;14.12;83.05;96523.28;6244801;23;20008;-80
2023/04/29 06:48:16;;;;;;;11.95;9.68;;;;;;;14.16;82.54;96518.44;6244877;23;20056;-80
2023/04/29 06:50:51;;;;;;;13.20;9.98;;;;;;;14.20;81.33;96524.91;6244621;23;20004;-80
2023/04/29 06:53:19;;;;;;;9.68;6.38;;;;;;;14.21;80.90;96523.88;6244496;23;20020;-80
2023/04/29 06:55:47;;;;;;;6.13;5.53;;;;;;;14.25;81.08;96517.19;6244698;23;20013;-81
2023/04/29 06:58:15;;;;;;;6.30;5.70;;;;;;;14.31;80.96;96513.75;6245031;23;20000;-80
2023/04/29 07:00:44;;;;;;;5.95;5.35;;;;;;;14.33;82.26;96522.22;6244603;23;20020;-81
2023/04/29 07:03:13;;;;;;;6.10;5.60;;;;;;;14.38;82.22;96517.16;6244770;23;20028;-80
2023/04/29 07:05:44;;;;;;;6.70;5.57;;;;;;;14.45;81.89;96530.25;6244636;23;20004;-80
2023/04/29 07:08:14;;;;;;;5.82;5.25;;;;;;;14.48;81.17;96531.69;6244937;23;20023;-81
2023/04/29 07:10:41;;;;;;;8.60;6.28;;;;;;;14.45;81.33;96530.25;6244665;23;20005;-80
2023/04/29 07:13:10;;;;;;;9.13;5.93;;;;;;;14.41;81.45;96535.13;6244472;23;20068;-80
2023/04/29 07:15:37;;;;;;;7.25;5.90;;;;;;;14.36;81.17;96537.53;6244451;23;20012;-80
2023/04/29 07:18:06;;;;;;;6.10;5.60;;;;;;;14.33;81.17;96543.22;6244776;23;20027;-80
2023/04/29 07:20:36;;;;;;;5.63;5.13;;;;;;;14.30;81.28;96543.66;6244415;23;20012;-80
2023/04/29 07:23:04;;;;;;;6.10;5.07;;;;;;;14.34;81.13;96546.63;6244179;23;20005;-80
2023/04/29 07:25:34;;;;;;;6.18;5.55;;;;;;;14.32;81.15;96540.78;6244567;23;20012;-80
2023/04/29 07:28:02;;;;;;;8.90;5.70;;;;;;;14.29;81.58;96542.00;6244877;23;20015;-80
2023/04/29 07:30:30;;;;;;;6.15;5.60;;;;;;;14.30;81.67;96548.06;6244389;23;20011;-81
2023/04/29 07:32:59;;;;;;;7.68;6.88;;;;;;;14.31;81.14;96550.50;6244510;23;20019;-80
2023/04/29 07:35:27;;;;;;;10.20;7.35;;;;;;;14.34;79.51;96554.50;6244408;23;20011;-80
2023/04/29 07:37:55;;;;;;;6.40;5.68;;;;;;;14.38;79.83;96561.75;6244341;23;20000;-80
2023/04/29 07:40:23;;;;;;;6.47;4.63;;;;;;;14.44;79.50;96549.66;6244462;23;20012;-80
2023/04/29 07:42:53;;;;;;;5.72;5.22;;;;;;;14.47;79.75;96548.41;6244424;23;20024;-80
2023/04/29 07:45:21;;;;;;;4.38;3.80;;;;;;;14.55;80.03;96561.34;6244282;23;20028;-80
2023/04/29 07:47:49;;;;;;;3.17;2.97;;;;;;;14.62;78.31;96564.75;6244377;23;20008;-80
2023/04/29 07:50:17;;;;;;;2.75;2.50;;;;;;;14.68;79.03;96566.56;6244263;23;20027;-80
2023/04/29 07:52:45;;;;;;;2.55;2.33;;;;;;;14.71;76.70;96560.06;6244388;23;20004;-81
2023/04/29 07:55:13;;;;;;;2.90;2.35;;;;;;;14.71;74.97;96566.13;6244316;23;20052;-80
2023/04/29 07:57:41;;;;;;;3.83;3.00;;;;;;;14.71;75.54;96573.19;6244113;23;20044;-80
2023/04/29 08:00:11;;;;;;;6.07;4.47;;;;;;;14.69;73.61;96569.97;6244198;23;20011;-82
2023/04/29 08:02:39;;;;;;;9.93;4.82;;;;;;;14.65;74.05;96574.84;6243921;23;20009;-81
2023/04/29 08:05:08;;;;;;;3.45;2.22;;;;;;;14.59;74.98;96573.06;6243853;23;20023;-81
2023/04/29 08:07:36;;;;;;;2.70;2.50;;;;;;;14.59;75.62;96591.44;6244203;23;20011;-80
2023/04/29 08:10:05;;;;;;;5.60;2.58;;;;;;;14.55;75.07;96593.66;6244261;23;20004;-80
2023/04/29 08:12:33;;;;;;;2.53;2.33;;;;;;;14.49;74.06;96594.44;6243806;23;20027;-80
2023/04/29 08:15:01;;;;;;;4.03;2.75;;;;;;;14.45;75.17;96592.44;6243987;23;20028;-81
2023/04/29 08:17:30;;;;;;;3.10;2.83;;;;;;;14.45;74.30;96595.06;6244009;23;20012;-80
2023/04/29 08:19:58;;;;;;;2.85;2.60;;;;;;;14.50;74.09;96590.03;6243865;23;20063;-81
2023/04/29 08:22:26;;;;;;;4.45;3.10;;;;;;;14.60;75.92;96595.66;6244132;23;20015;-79
2023/04/29 08:24:54;;;;;;;3.83;3.20;;;;;;;14.72;75.18;96604.50;6243944;23;20004;-80
2023/04/29 08:27:22;;;;;;;4.85;3.45;;;;;;;14.75;74.72;96604.06;6244165;23;20016;-80
2023/04/29 08:29:50;;;;;;;3.35;3.05;;;;;;;14.74;74.57;96602.47;6244069;23;20012;-81
2023/04/29 08:32:19;;;;;;;3.25;2.95;;;;;;;14.71;73.96;96602.88;6244045;23;20009;-81
2023/04/29 08:34:48;;;;;;;4.15;3.45;;;;;;;14.69;74.69;96615.41;6243926;23;20009;-80
2023/04/29 08:37:16;;;;;;;3.95;3.42;;;;;;;14.65;75.33;96608.16;6244038;22;20026;-80
2023/04/29 08:39:46;;;;;;;4.88;3.40;;;;;;;14.64;76.46;96612.59;6243928;23;20053;-81
2023/04/29 08:42:14;;;;;;;4.85;3.65;;;;;;;14.66;75.75;96615.84;6243747;23;20013;-81
2023/04/29 08:44:43;;;;;;;4.45;3.80;;;;;;;14.67;76.35;96612.22;6243809;23;20020;-80
2023/04/29 08:47:12;;;;;;;2.90;2.65;;;;;;;14.68;73.75;96613.81;6244049;23;20028;-81
2023/04/29 08:49:41;;;;;;;2.97;2.67;;;;;;;14.65;73.43;96618.66;6244063;23;20039;-81
2023/04/29 08:52:11;;;;;;;2.83;2.63;;;;;;;14.66;74.19;96610.59;6243950;23;20024;-82
2023/04/29 08:54:40;;;;;;;3.03;2.83;;;;;;;14.70;73.69;96616.22;6243745;23;20016;-81
2023/04/29 08:57:10;;;;;;;3.08;2.88;;;;;;;14.81;73.47;96620.84;6243822;23;20001;-81
2023/04/29 08:59:39;;;;;;;2.75;2.55;;;;;;;14.93;72.20;96618.34;6243838;23;20050;-81
2023/04/29 09:02:11;;;;;;;2.70;2.50;;;;;;;15.02;72.37;96620.56;6243716;23;20012;-81
2023/04/29 09:04:45;;;;;;;3.90;2.83;;;;;;;15.08;73.36;96613.63;6243619;23;20016;-82
2023/04/29 09:07:16;;;;;;;4.78;3.20;;;;;;;15.12;71.76;96620.09;6243958;23;20010;-80
2023/04/29 09:09:45;;;;;;;7.22;2.63;;;;;;;15.17;71.16;96614.19;6243760;23;20004;-81
2023/04/29 09:12:12;;;;;;;2.80;2.60;;;;;;;15.14;72.41;96617.25;6243895;23;20008;-82
2023/04/29 09:14:40;;;;;;;2.47;2.38;;;;;;;15.10;73.04;96616.06;6243610;23;20009;-82
2023/04/29 09:17:08;;;;;;;3.28;2.00;;;;;;;15.05;73.42;96614.06;6243854;23;20009;-82
2023/04/29 09:19:37;;;;;;;2.53;2.33;;;;;;;15.04;74.41;96615.06;6243720;23;20005;-81
2023/04/29 09:22:06;;;;;;;2.33;2.10;;;;;;;14.99;72.24;96620.94;6243680;23;20001;-82
2023/04/29 09:24:36;;;;;;;3.92;2.03;;;;;;;14.96;72.69;96625.84;6243687;23;20001;-82
2023/04/29 09:27:04;;;;;;;2.78;1.90;;;;;;;14.90;72.82;96624.03;6243771;23;20035;-81
2023/04/29 09:29:33;;;;;;;1.92;1.83;;;;;;;14.86;74.17;96628.88;6243785;23;20015;-81
2023/04/29 09:32:18;;;;;;;2.65;1.80;;;;;;;14.79;74.25;96626.28;6243622;23;20005;-81
2023/04/29 09:34:48;;;;;;;1.70;1.60;;;;;;;14.73;74.07;96627.09;6243432;23;20020;-81
2023/04/29 09:37:24;;;;;;;2.20;1.83;;;;;;;14.67;74.54;96627.97;6243639;23;20057;-81
2023/04/29 09:39:53;;;;;;;2.25;1.95;;;;;;;14.61;74.11;96639.28;6243498;23;20036;-82
2023/04/29 09:42:22;;;;;;;6.10;2.08;;;;;;;14.59;75.18;96636.06;6243638;23;20009;-81
2023/04/29 09:44:50;;;;;;;2.00;1.90;;;;;;;14.52;73.32;96635.22;6243591;23;20016;-82
2023/04/29 09:47:30;;;;;;;2.30;2.10;;;;;;;14.45;73.38;96640.47;6244930;23;20004;-82
2023/04/29 09:50:12;;;;;;;2.33;2.15;;;;;;;14.46;73.76;96646.56;6245900;23;20117;-82
2023/04/29 09:52:41;;;;;;;2.25;2.10;;;;;;;14.43;73.99;96648.56;6245467;23;20020;-81
2023/04/29 09:55:14;;;;;;;3.05;1.95;;;;;;;14.39;73.52;96642.13;6245360;23;20040;-82
2023/04/29 09:57:42;;;;;;;1.95;1.85;;;;;;;14.37;74.13;96636.28;6245321;23;20016;-82
2023/04/29 10:00:13;;;;;;;2.55;2.15;;;;;;;14.39;74.26;96642.13;6245560;23;20273;-82
2023/04/29 10:02:42;;;;;;;2.17;1.95;;;;;;;14.41;73.34;96642.72;6245712;23;20011;-82
2023/04/29 10:05:10;;;;;;;2.33;1.95;;;;;;;14.48;72.59;96649.78;6245429;23;20027;-81
2023/04/29 10:07:40;;;;;;;2.10;2.00;;;;;;;14.58;73.39;96647.56;6245583;23;20004;-81
2023/04/29 10:10:12;;;;;;;3.85;1.83;;;;;;;14.69;72.79;96640.84;6245372;23;20031;-82
2023/04/29 10:12:41;;;;;;;;;;;;;;;14.76;72.03;96647.72;6245973;23;20080;-82
2023/04/29 10:15:17;;;;;;;1.92;1.80;;;;;;;14.83;70.56;96643.25;6245293;23;19912;-82
2023/04/29 10:17:49;;;;;;;1.70;1.60;;;;;;;14.88;69.72;96649.69;6245452;23;20047;-82
2023/04/29 10:20:23;;;;;;;1.92;1.70;;;;;;;14.87;68.76;96655.94;6245523;23;20008;-82
2023/04/29 10:22:53;;;;;;;2.58;1.95;;;;;;;14.84;68.99;96650.09;6245218;23;20016;-82
2023/04/29 10:25:26;;;;;;;4.30;1.92;;;;;;;14.84;67.99;96649.28;6245211;23;20019;-82
2023/04/29 10:27:55;;;;;;;2.50;2.30;;;;;;;14.88;69.06;96650.50;6245602;23;20043;-82
2023/04/29 10:30:24;;;;;;;3.33;2.65;;;;;;;14.89;69.49;96656.56;6245163;23;20022;-82
2023/04/29 10:32:52;;;;;;;2.20;2.00;;;;;;;14.83;70.53;96648.50;6245334;23;20012;-83
2023/04/29 10:35:24;;;;;;;4.07;1.83;;;;;;;14.83;70.73;96648.50;6245146;23;20004;-82
2023/04/29 10:37:53;;;;;;;;;;;;;;;14.87;70.36;96648.06;6245698;23;20012;-81
2023/04/29 10:40:31;;;;;;;4.13;1.67;;;;;;;14.87;71.16;96650.69;6245266;23;19912;-81
2023/04/29 10:42:59;;;;;;;2.45;1.73;;;;;;;14.83;68.63;96643.25;6237419;22;20375;-77
2023/04/29 10:45:30;;;;;;;1.70;1.60;;;;;;;14.83;68.57;96648.50;6232211;23;20022;-76
2023/04/29 10:48:14;;;;;;;1.65;1.55;;;;;;;14.86;71.00;96647.28;6241780;23;20055;-78
2023/04/29 10:51:02;;;;;;;2.40;1.60;;;;;;;14.92;67.85;96643.03;6232248;23;20028;-79
2023/04/29 10:53:30;;;;;;;4.15;1.67;;;;;;;14.93;68.08;96639.38;6228939;23;20024;-79
2023/04/29 10:56:04;;;;;;;2.58;1.80;;;;;;;14.96;67.65;96642.41;6247137;23;20099;-79
2023/04/29 10:58:38;;;;;;;1.88;1.77;;;;;;;14.97;68.21;96632.69;6261235;23;20050;-76
2023/04/29 11:01:06;;;;;;;1.75;1.65;;;;;;;14.97;68.90;96640.56;6268595;23;20068;-76
2023/04/29 11:03:57;;;;;;;2.45;1.80;;;;;;;14.93;67.44;96639.38;6266904;22;20104;-77
2023/04/29 11:06:26;;;;;;;1.83;1.73;;;;;;;14.90;68.95;96642.41;6247945;23;20445;-77
2023/04/29 11:09:02;;;;;;;2.63;1.58;;;;;;;14.87;69.57;96638.41;6246958;23;20052;-77
2023/04/29 11:11:48;;;;;;;1.48;1.38;;;;;;;14.86;70.61;96635.97;6247192;23;20020;-79
2023/04/29 11:14:22;;;;;;;1.40;1.30;;;;;;;14.84;69.04;96638.78;6246742;22;20024;-75
2023/04/29 11:16:52;;;;;;;4.00;1.83;;;;;;;14.86;70.65;96638.59;6246598;23;20016;-77
2023/04/29 11:19:20;;;;;;;1.42;1.33;;;;;;;14.87;68.93;96637.56;6247451;23;20039;-79
2023/04/29 11:21:48;;;;;;;3.53;1.77;;;;;;;14.83;68.46;96643.25;6246095;23;20095;-80
2023/04/29 11:24:16;;;;;;;1.67;1.40;;;;;;;14.87;69.63;96648.06;6245889;22;20024;-79
2023/04/29 11:26:45;;;;;;;2.70;1.63;;;;;;;14.90;70.73;96642.41;6246352;23;20070;-79
2023/04/29 11:29:13;;;;;;;1.50;1.40;;;;;;;14.89;68.02;96644.25;6246451;23;20044;-79
2023/04/29 11:31:40;;;;;;;1.50;1.40;;;;;;;14.88;67.63;96649.69;6246319;23;20047;-78
2023/04/29 11:34:08;;;;;;;1.77;1.67;;;;;;;14.83;66.60;96655.56;6245774;22;20099;-79
2023/04/29 11:36:36;;;;;;;1.55;1.45;;;;;;;14.81;69.32;96650.53;6246606;23;20028;-79
2023/04/29 11:39:04;;;;;;;2.25;2.05;;;;;;;14.81;69.90;96650.53;6245966;23;20486;-79
2023/04/29 11:41:32;;;;;;;2.55;1.98;;;;;;;14.78;69.49;96645.69;6246383;23;20103;-79
2023/04/29 11:44:02;;;;;;;2.53;1.98;;;;;;;14.73;69.58;96650.75;6245488;22;20020;-79
2023/04/29 11:46:30;;;;;;;1.95;1.83;;;;;;;14.69;69.44;96652.16;6246390;23;20103;-79
2023/04/29 11:48:59;;;;;;;1.88;1.77;;;;;;;14.69;70.41;96657.41;6246448;23;20023;-79
2023/04/29 11:51:27;;;;;;;1.80;1.70;;;;;;;14.76;70.76;96652.16;6246027;23;20020;-78
2023/04/29 11:53:56;;;;;;;1.50;1.42;;;;;;;14.83;69.72;96652.94;6245111;22;20698;-79
2023/04/29 11:56:25;;;;;;;1.90;1.65;;;;;;;14.89;68.99;96653.91;6250566;23;20055;-77
2023/04/29 11:58:56;;;;;;;2.22;2.00;;;;;;;14.98;70.37;96650.88;6273222;22;20165;-76
2023/04/29 12:01:26;;;;;;;1.80;1.70;;;;;;;15.06;70.31;96655.06;6272547;22;20020;-76
2023/04/29 12:03:59;;;;;;;3.80;1.77;;;;;;;15.10;67.32;96652.84;6260254;22;20099;-79
2023/04/29 12:06:28;;;;;;;2.38;1.60;;;;;;;15.08;66.03;96655.66;6246338;23;20020;-77
2023/04/29 12:08:59;;;;;;;2.55;1.50;;;;;;;15.11;67.36;96655.28;6246458;23;20039;-77
2023/04/29 12:11:27;;;;;;;1.92;1.83;;;;;;;15.14;66.84;96654.03;6245791;23;20063;-77
2023/04/29 12:13:54;;;;;;;1.83;1.67;;;;;;;15.17;66.46;96659.66;6245812;22;20095;-77
2023/04/29 12:16:23;;;;;;;1.80;1.65;;;;;;;15.20;67.58;96663.72;6245719;23;20103;-79
2023/04/29 12:18:53;;;;;;;2.10;1.90;;;;;;;15.24;66.59;96657.84;6245316;23;20043;-79
2023/04/29 12:21:22;;;;;;;4.07;2.15;;;;;;;15.29;68.25;96651.16;6245671;23;20335;-79
2023/04/29 12:23:51;;;;;;;3.70;2.22;;;;;;;15.34;67.15;96653.94;6245073;22;20016;-79
2023/04/29 12:26:19;;;;;;;2.05;1.63;;;;;;;15.36;67.77;96649.28;6245366;23;20067;-79
2023/04/29 12:28:54;;;;;;;1.80;1.70;;;;;;;15.35;64.68;96658.16;6245386;23;20082;-79
2023/04/29 12:31:23;;;;;;;2.60;1.60;;;;;;;15.35;64.95;96653.75;6246213;23;20020;-79
2023/04/29 12:33:54;;;;;;;1.80;1.70;;;;;;;15.35;64.49;96659.00;6245048;22;20020;-79
2023/04/29 12:36:23;;;;;;;1.88;1.60;;;;;;;15.33;65.59;96662.84;6245109;23;20020;-79
2023/04/29 12:38:53;;;;;;;1.50;1.40;;;;;;;15.35;66.21;96663.44;6245429;23;20023;-79
2023/04/29 12:41:36;;;;;;;1.73;1.50;;;;;;;15.38;64.18;96669.06;6245106;23;20024;-79
2023/04/29 12:44:04;;;;;;;3.13;2.10;;;;;;;15.37;65.51;96666.66;6245120;22;20477;-76
2023/04/29 12:46:34;;;;;;;2.40;2.20;;;;;;;15.33;64.19;96666.28;6245446;23;20024;-76
2023/04/29 12:49:03;;;;;;;2.92;2.10;;;;;;;15.33;65.03;96660.22;6245816;23;20027;-77
2023/04/29 12:51:32;;;;;;;1.90;1.73;;;;;;;15.35;66.10;96666.06;6245538;23;20339;-79
2023/04/29 12:54:00;;;;;;;3.47;2.42;;;;;;;15.37;65.50;96669.28;6244941;22;20103;-79
2023/04/29 12:56:27;;;;;;;4.93;2.83;;;;;;;15.37;65.13;96664.84;6246032;23;20024;-79
2023/04/29 12:58:55;;;;;;;2.50;2.15;;;;;;;15.39;64.70;96657.56;6246399;23;20062;-79
2023/04/29 13:01:22;;;;;;;2.13;1.73;;;;;;;15.42;64.38;96664.22;6245998;23;20544;-80